^^

Live Weather Display



Station Historical Data
Daily Summary for June 20, 2017 Units:  English    Metric   Both
« Previous Day
Next Day »
Daily Weekly Monthly Yearly Custom
  High: Low: Average:
Temperature: 84.0 °F 66.0 °F 74.4 °F
Dew Point: 69.9 °F 59.1 °F 65 °F
Humidity: 96 % 44 % 75 %
Wind Speed: 9.8 mph 0.0 mph 0.4 mph
Wind Gust: 13.0 mph - -
Wind:- - South
Pressure: 29.98 in 29.88 in -
Precipitation: 0.02 in    
Historical Graphs
 
 
Tabular Data for June 20, 2017
Time Temperature Dew Point Pressure Wind Wind Speed Wind Gust Humidity Rainfall Rate (Hourly)
00:01 69.6 °F 68.1 °F 29.89 in Calm     95 % 0.00 in
00:06 69.6 °F 68.1 °F 29.89 in Calm     95 % 0.00 in
00:11 69.6 °F 68.1 °F 29.89 in Calm     95 % 0.00 in
00:16 69.6 °F 68.1 °F 29.90 in Calm     95 % 0.00 in
00:21 69.6 °F 68.1 °F 29.89 in Calm     95 % 0.00 in
00:26 69.4 °F 67.9 °F 29.89 in Calm     95 % 0.00 in
00:31 69.4 °F 67.9 °F 29.88 in Calm     95 % 0.00 in
00:36 69.4 °F 67.9 °F 29.89 in Calm     95 % 0.00 in
00:41 69.4 °F 67.9 °F 29.89 in Calm     95 % 0.00 in
00:46 69.4 °F 67.9 °F 29.88 in Calm     95 % 0.00 in
00:51 69.4 °F 67.9 °F 29.88 in Calm     95 % 0.02 in
00:56 69.4 °F 67.9 °F 29.88 in Calm     95 % 0.02 in
01:01 69.4 °F 67.9 °F 29.88 in Calm     95 % 0.02 in
01:06 69.3 °F 67.7 °F 29.88 in Calm     95 % 0.02 in
01:11 69.3 °F 67.7 °F 29.88 in Calm     95 % 0.02 in
01:16 69.1 °F 67.6 °F 29.88 in Calm     95 % 0.02 in
01:26 69.1 °F 67.6 °F 29.88 in Calm     95 % 0.02 in
01:31 69.1 °F 67.6 °F 29.88 in Calm     95 % 0.02 in
01:36 68.9 °F 67.4 °F 29.88 in Calm     95 % 0.02 in
01:41 68.9 °F 67.4 °F 29.88 in Calm     95 % 0.02 in
01:46 68.9 °F 67.4 °F 29.88 in Calm     95 % 0.00 in
01:51 68.7 °F 67.2 °F 29.88 in Calm     95 % 0.00 in
01:56 68.7 °F 67.2 °F 29.88 in Calm     95 % 0.00 in
02:01 68.7 °F 67.2 °F 29.88 in Calm     95 % 0.00 in
02:06 68.7 °F 67.2 °F 29.88 in Calm     95 % 0.00 in
02:11 68.5 °F 67.0 °F 29.88 in Calm     95 % 0.00 in
02:16 68.5 °F 67.0 °F 29.88 in Calm     95 % 0.00 in
02:21 68.5 °F 67.0 °F 29.88 in Calm     95 % 0.00 in
02:26 68.5 °F 67.0 °F 29.89 in Calm     95 % 0.00 in
02:31 68.5 °F 67.0 °F 29.90 in Calm     95 % 0.00 in
02:36 68.5 °F 67.0 °F 29.90 in Calm     95 % 0.00 in
02:41 68.5 °F 67.0 °F 29.90 in Calm     95 % 0.00 in
02:46 68.5 °F 67.0 °F 29.90 in Calm     95 % 0.00 in
02:51 68.5 °F 67.0 °F 29.90 in Calm     95 % 0.00 in
02:56 68.4 °F 66.8 °F 29.90 in Calm     95 % 0.00 in
03:01 68.4 °F 66.8 °F 29.90 in Calm     95 % 0.00 in
03:06 68.4 °F 66.8 °F 29.91 in Calm     95 % 0.00 in
03:11 68.4 °F 66.8 °F 29.91 in Calm     95 % 0.00 in
03:16 68.2 °F 66.7 °F 29.90 in Calm     95 % 0.00 in
03:21 68.2 °F 66.7 °F 29.90 in Calm     95 % 0.00 in
03:26 68.2 °F 66.7 °F 29.91 in Calm     95 % 0.00 in
03:31 68.2 °F 66.7 °F 29.90 in Calm     95 % 0.00 in
03:36 68.0 °F 66.5 °F 29.90 in Calm     95 % 0.00 in
03:41 67.8 °F 66.3 °F 29.91 in Calm     95 % 0.00 in
03:46 67.8 °F 66.3 °F 29.91 in Calm     95 % 0.00 in
03:51 67.8 °F 66.3 °F 29.91 in Calm     95 % 0.00 in
03:56 67.8 °F 66.3 °F 29.91 in Calm     95 % 0.00 in
04:01 67.8 °F 66.3 °F 29.90 in Calm     95 % 0.00 in
04:06 67.6 °F 66.1 °F 29.90 in Calm     95 % 0.00 in
04:11 67.6 °F 66.1 °F 29.90 in Calm     95 % 0.00 in
04:16 67.3 °F 65.8 °F 29.91 in Calm     95 % 0.00 in
04:21 67.3 °F 65.8 °F 29.90 in Calm     95 % 0.00 in
04:26 67.1 °F 65.9 °F 29.90 in Calm     96 % 0.00 in
04:31 67.1 °F 65.9 °F 29.90 in Calm     96 % 0.00 in
04:36 66.9 °F 65.7 °F 29.90 in Calm     96 % 0.00 in
04:41 66.7 °F 65.5 °F 29.90 in Calm     96 % 0.00 in
04:46 66.7 °F 65.5 °F 29.91 in Calm     96 % 0.00 in
04:51 66.6 °F 65.3 °F 29.91 in Calm     96 % 0.00 in
04:56 66.6 °F 65.3 °F 29.91 in Calm     96 % 0.00 in
05:01 66.4 °F 65.2 °F 29.91 in Calm     96 % 0.00 in
05:06 66.4 °F 65.2 °F 29.91 in Calm     96 % 0.00 in
05:11 66.4 °F 65.2 °F 29.92 in Calm     96 % 0.00 in
05:16 66.2 °F 65.0 °F 29.92 in Calm     96 % 0.00 in
05:21 66.0 °F 64.8 °F 29.92 in Calm     96 % 0.00 in
05:26 66.2 °F 65.0 °F 29.93 in Calm     96 % 0.00 in
05:31 66.2 °F 65.0 °F 29.93 in Calm     96 % 0.00 in
05:36 66.2 °F 65.0 °F 29.93 in Calm     96 % 0.00 in
05:41 66.2 °F 65.0 °F 29.93 in Calm     96 % 0.00 in
05:46 66.2 °F 65.0 °F 29.92 in Calm     96 % 0.00 in
05:51 66.2 °F 65.0 °F 29.93 in Calm     96 % 0.00 in
05:56 66.0 °F 64.8 °F 29.93 in Calm     96 % 0.00 in
06:01 66.0 °F 64.8 °F 29.93 in Calm     96 % 0.00 in
06:06 66.0 °F 64.8 °F 29.93 in Calm     96 % 0.00 in
06:11 66.0 °F 64.8 °F 29.93 in Calm     96 % 0.00 in
06:16 66.0 °F 64.8 °F 29.93 in Calm     96 % 0.00 in
06:21 66.0 °F 64.8 °F 29.94 in Calm     96 % 0.00 in
06:26 66.0 °F 64.8 °F 29.93 in Calm     96 % 0.00 in
06:31 66.0 °F 64.8 °F 29.94 in Calm     96 % 0.00 in
06:36 66.0 °F 64.8 °F 29.94 in Calm     96 % 0.00 in
06:41 66.0 °F 64.8 °F 29.94 in Calm     96 % 0.00 in
06:46 66.0 °F 64.8 °F 29.94 in Calm     96 % 0.00 in
06:51 66.0 °F 64.8 °F 29.94 in Calm     96 % 0.00 in
06:56 66.2 °F 65.0 °F 29.94 in Calm     96 % 0.00 in
07:01 66.4 °F 65.2 °F 29.94 in Calm     96 % 0.00 in
07:06 66.4 °F 65.2 °F 29.94 in Calm     96 % 0.00 in
07:11 66.6 °F 65.3 °F 29.94 in Calm     96 % 0.00 in
07:16 66.6 °F 65.3 °F 29.94 in Calm     96 % 0.00 in
07:21 66.6 °F 65.3 °F 29.95 in Calm     96 % 0.00 in
07:26 66.7 °F 65.5 °F 29.94 in Calm     96 % 0.00 in
07:31 66.7 °F 65.5 °F 29.94 in Calm     96 % 0.00 in
07:36 66.9 °F 65.7 °F 29.95 in Calm     96 % 0.00 in
07:41 66.9 °F 65.7 °F 29.95 in Calm     96 % 0.00 in
07:46 66.9 °F 65.7 °F 29.95 in Calm     96 % 0.00 in
07:51 67.1 °F 65.9 °F 29.95 in Calm     96 % 0.00 in
07:56 67.1 °F 65.9 °F 29.95 in Calm     96 % 0.00 in
08:01 67.3 °F 65.8 °F 29.95 in Calm     95 % 0.00 in
08:06 67.3 °F 65.8 °F 29.95 in Calm     95 % 0.00 in
08:11 67.3 °F 65.8 °F 29.95 in Calm     95 % 0.00 in
08:16 67.6 °F 66.1 °F 29.95 in Calm     95 % 0.00 in
08:21 67.6 °F 66.1 °F 29.96 in Calm     95 % 0.00 in
08:26 67.6 °F 66.1 °F 29.96 in Calm     95 % 0.00 in
08:31 67.8 °F 66.3 °F 29.96 in Calm     95 % 0.00 in
08:36 67.8 °F 66.3 °F 29.96 in Calm   2.0 mph 95 % 0.00 in
08:41 68.2 °F 66.7 °F 29.96 in Calm   2.0 mph 95 % 0.00 in
08:46 68.5 °F 67.0 °F 29.96 in Calm     95 % 0.00 in
08:51 69.1 °F 67.6 °F 29.96 in Calm   2.7 mph 95 % 0.00 in
08:56 69.4 °F 67.9 °F 29.96 in Calm   2.7 mph 95 % 0.00 in
09:01 69.4 °F 67.9 °F 29.96 in Calm     95 % 0.00 in
09:06 69.6 °F 68.1 °F 29.96 in Calm   1.8 mph 95 % 0.00 in
09:11 69.8 °F 68.3 °F 29.97 in Calm   3.1 mph 95 % 0.00 in
09:16 70.2 °F 68.6 °F 29.96 in Calm   3.1 mph 95 % 0.00 in
09:17 70.2 °F 68.6 °F 29.96 in Calm   3.1 mph 95 % 0.00 in
09:22 70.7 °F 69.0 °F 29.97 in Calm     95 % 0.00 in
09:27 71.2 °F 69.7 °F 29.97 in Calm   4.9 mph 95 % 0.00 in
09:32 71.4 °F 69.6 °F 29.97 in Calm   4.9 mph 94 % 0.00 in
09:37 71.8 °F 69.6 °F 29.97 in Calm   2.9 mph 93 % 0.00 in
09:42 72.3 °F 69.9 °F 29.97 in Calm   2.9 mph 91 % 0.00 in
09:47 72.7 °F 69.6 °F 29.97 in Calm     90 % 0.00 in
09:52 73.0 °F 69.6 °F 29.97 in East 4.7 mph 4.7 mph 89 % 0.00 in
09:57 73.2 °F 68.8 °F 29.98 in West 2.5 mph 4.7 mph 86 % 0.00 in
10:02 73.4 °F 68.6 °F 29.97 in Calm   3.1 mph 85 % 0.00 in
10:07 73.8 °F 68.6 °F 29.98 in Calm   3.1 mph 84 % 0.00 in
10:12 73.9 °F 67.8 °F 29.98 in ESE 3.1 mph 4.5 mph 81 % 0.00 in
10:17 74.3 °F 68.2 °F 29.98 in Calm   4.5 mph 81 % 0.00 in
10:22 74.7 °F 67.8 °F 29.98 in Calm   4.5 mph 79 % 0.00 in
10:27 74.8 °F 67.7 °F 29.98 in Calm   2.0 mph 78 % 0.00 in
10:32 75.0 °F 66.6 °F 29.98 in Calm   4.0 mph 75 % 0.00 in
10:37 75.0 °F 67.4 °F 29.98 in NW 1.6 mph 4.0 mph 77 % 0.00 in
10:42 75.4 °F 68.1 °F 29.98 in NW 2.2 mph 2.2 mph 78 % 0.00 in
10:47 75.6 °F 67.9 °F 29.98 in Calm   2.2 mph 76 % 0.00 in
10:52 75.9 °F 67.8 °F 29.98 in WSW 1.6 mph 2.0 mph 76 % 0.00 in
10:57 75.9 °F 67.0 °F 29.98 in Calm   2.0 mph 74 % 0.00 in
11:02 76.1 °F 67.2 °F 29.98 in Calm   2.0 mph 74 % 0.00 in
11:07 76.1 °F 66.0 °F 29.98 in Calm   2.5 mph 71 % 0.00 in
11:12 76.6 °F 65.8 °F 29.98 in Calm   2.5 mph 69 % 0.00 in
11:17 76.8 °F 66.8 °F 29.98 in Calm     71 % 0.00 in
11:19 76.8 °F 66.8 °F 29.98 in Calm     71 % 0.00 in
11:24 76.8 °F 66.4 °F 29.98 in West 1.3 mph 2.9 mph 70 % 0.00 in
11:29 77.0 °F 65.7 °F 29.98 in ESE 1.6 mph 2.9 mph 68 % 0.00 in
11:34 77.2 °F 66.3 °F 29.98 in Calm   3.1 mph 69 % 0.00 in
11:39 77.4 °F 64.7 °F 29.98 in Calm   3.1 mph 65 % 0.00 in
11:44 77.7 °F 65.0 °F 29.98 in Calm   1.8 mph 66 % 0.00 in
11:49 77.9 °F 65.0 °F 29.98 in Calm   2.2 mph 64 % 0.00 in
11:54 78.1 °F 64.9 °F 29.98 in Calm   2.9 mph 64 % 0.00 in
11:59 78.6 °F 65.0 °F 29.97 in Calm   4.3 mph 63 % 0.00 in
12:04 78.6 °F 65.4 °F 29.97 in Calm   4.3 mph 64 % 0.00 in
12:09 78.8 °F 65.2 °F 29.97 in Calm   3.6 mph 63 % 0.00 in
12:14 79.3 °F 64.8 °F 29.97 in Calm   4.5 mph 61 % 0.00 in
12:19 79.5 °F 64.0 °F 29.97 in Calm   4.5 mph 59 % 0.00 in
12:24 79.7 °F 63.1 °F 29.97 in Calm   3.1 mph 56 % 0.00 in
12:29 79.5 °F 63.5 °F 29.97 in Calm   4.3 mph 58 % 0.00 in
12:34 79.7 °F 63.6 °F 29.97 in Calm   4.3 mph 58 % 0.00 in
12:39 79.9 °F 62.7 °F 29.97 in Calm   2.2 mph 56 % 0.00 in
12:44 80.2 °F 62.5 °F 29.97 in Calm   2.2 mph 55 % 0.00 in
12:49 80.6 °F 61.8 °F 29.97 in Calm   2.2 mph 53 % 0.00 in
12:54 81.1 °F 62.3 °F 29.97 in WSW 3.4 mph 3.4 mph 53 % 0.00 in
12:59 81.3 °F 62.0 °F 29.97 in NW 2.7 mph 3.4 mph 52 % 0.00 in
13:04 81.3 °F 61.6 °F 29.97 in NW 1.6 mph 4.5 mph 51 % 0.00 in
13:09 81.5 °F 61.1 °F 29.97 in Calm   4.5 mph 50 % 0.00 in
13:14 81.7 °F 61.2 °F 29.97 in Calm   4.5 mph 50 % 0.00 in
13:19 81.7 °F 60.6 °F 29.97 in Calm   4.5 mph 49 % 0.00 in
13:24 81.9 °F 60.6 °F 29.96 in Calm   2.2 mph 49 % 0.00 in
13:29 82.2 °F 61.7 °F 29.97 in Calm   2.2 mph 50 % 0.00 in
13:34 82.2 °F 60.5 °F 29.97 in Calm   2.9 mph 48 % 0.00 in
13:39 82.2 °F 59.3 °F 29.96 in Calm   2.9 mph 46 % 0.00 in
13:44 81.7 °F 60.0 °F 29.96 in Calm   2.7 mph 48 % 0.00 in
13:49 81.3 °F 59.1 °F 29.96 in Calm   3.1 mph 47 % 0.00 in
13:54 81.5 °F 61.1 °F 29.96 in Calm   3.1 mph 50 % 0.00 in
13:59 81.5 °F 61.6 °F 29.96 in Calm   3.6 mph 51 % 0.00 in
14:04 81.5 °F 59.8 °F 29.96 in Calm   3.6 mph 48 % 0.00 in
14:09 82.0 °F 61.6 °F 29.95 in Calm     50 % 0.00 in
14:14 82.8 °F 61.6 °F 29.95 in Calm   2.2 mph 49 % 0.00 in
14:19 82.8 °F 60.4 °F 29.96 in Calm   2.5 mph 47 % 0.00 in
14:24 82.6 °F 60.8 °F 29.96 in WNW 2.9 mph 2.9 mph 48 % 0.00 in
14:29 82.6 °F 61.4 °F 29.96 in Calm   2.9 mph 49 % 0.00 in
14:34 82.8 °F 62.1 °F 29.95 in Calm   2.9 mph 50 % 0.00 in
14:39 83.1 °F 62.6 °F 29.96 in West 1.3 mph 2.7 mph 50 % 0.00 in
14:44 83.1 °F 60.1 °F 29.95 in East 5.1 mph 5.1 mph 46 % 0.00 in
14:49 83.1 °F 60.1 °F 29.95 in Calm   6.7 mph 46 % 0.00 in
14:54 83.1 °F 60.1 °F 29.95 in Calm   6.7 mph 46 % 0.00 in
14:59 83.8 °F 61.4 °F 29.95 in Calm   6.7 mph 47 % 0.00 in
15:04 83.7 °F 61.3 °F 29.94 in Calm   1.6 mph 47 % 0.00 in
15:09 83.8 °F 61.4 °F 29.95 in Calm   2.9 mph 47 % 0.00 in
15:14 83.8 °F 60.8 °F 29.95 in Calm   3.6 mph 46 % 0.00 in
15:19 83.7 °F 60.6 °F 29.95 in Calm   3.6 mph 46 % 0.00 in
15:24 83.5 °F 60.5 °F 29.94 in WSW 1.6 mph 3.1 mph 46 % 0.00 in
15:29 83.5 °F 60.5 °F 29.94 in West 0.7 mph 4.5 mph 46 % 0.00 in
15:34 83.5 °F 60.5 °F 29.94 in Calm   4.5 mph 46 % 0.00 in
15:39 83.7 °F 60.6 °F 29.94 in Calm   3.6 mph 46 % 0.00 in
15:44 83.8 °F 61.4 °F 29.94 in Calm   4.7 mph 47 % 0.00 in
15:49 84.0 °F 59.7 °F 29.94 in Calm   7.4 mph 44 % 0.00 in
15:54 83.5 °F 60.5 °F 29.94 in WNW 1.6 mph 7.4 mph 46 % 0.00 in
15:59 83.5 °F 60.5 °F 29.94 in Calm   5.4 mph 47 % 0.00 in
16:05 83.5 °F 61.7 °F 29.94 in Calm   4.5 mph 48 % 0.00 in
16:10 82.9 °F 61.2 °F 29.94 in Calm   4.5 mph 48 % 0.00 in
16:15 82.9 °F 62.4 °F 29.94 in Calm   3.6 mph 50 % 0.00 in
16:20 83.3 °F 62.8 °F 29.94 in Calm   5.4 mph 50 % 0.00 in
16:25 83.3 °F 63.3 °F 29.94 in Calm   5.4 mph 51 % 0.00 in
16:30 83.1 °F 62.6 °F 29.94 in ESE 3.6 mph 9.8 mph 50 % 0.00 in
16:35 82.9 °F 62.9 °F 29.94 in Calm   9.8 mph 51 % 0.00 in
16:40 82.9 °F 64.0 °F 29.93 in Calm   6.9 mph 53 % 0.00 in
16:45 82.9 °F 63.5 °F 29.94 in Calm   6.3 mph 52 % 0.00 in
16:50 82.9 °F 64.0 °F 29.94 in Calm   6.9 mph 53 % 0.00 in
16:55 82.8 °F 62.8 °F 29.93 in SE 4.9 mph 6.9 mph 51 % 0.00 in
17:00 82.6 °F 63.3 °F 29.93 in Calm   5.8 mph 52 % 0.00 in
17:05 82.6 °F 63.1 °F 29.94 in ESE 2.9 mph 6.3 mph 52 % 0.00 in
17:10 82.2 °F 62.8 °F 29.93 in Calm   13.0 mph 51 % 0.00 in
17:15 82.2 °F 62.8 °F 29.94 in SE 9.8 mph 13.0 mph 52 % 0.00 in
17:16 82.2 °F 63.3 °F 29.93 in Calm   13.0 mph 53 % 0.00 in
17:21 82.2 °F 63.3 °F 29.93 in SE 2.5 mph 9.8 mph 53 % 0.00 in
17:26 82.0 °F 63.1 °F 29.93 in SSE 2.0 mph 5.6 mph 53 % 0.00 in
17:31 82.0 °F 63.6 °F 29.93 in Calm   8.9 mph 54 % 0.00 in
17:36 81.1 °F 62.8 °F 29.93 in Calm   8.9 mph 54 % 0.00 in
17:41 81.1 °F 63.4 °F 29.94 in Calm   6.5 mph 55 % 0.00 in
17:46 81.3 °F 63.5 °F 29.93 in Calm   2.9 mph 55 % 0.00 in
17:51 81.7 °F 62.8 °F 29.93 in ESE 6.0 mph 6.0 mph 53 % 0.00 in
17:56 81.7 °F 63.3 °F 29.93 in Calm   6.0 mph 54 % 0.00 in
18:01 81.5 °F 62.6 °F 29.93 in SW 4.0 mph 6.7 mph 53 % 0.00 in
18:06 81.3 °F 63.0 °F 29.93 in Calm   6.7 mph 54 % 0.00 in
18:11 81.3 °F 63.5 °F 29.93 in Calm   6.0 mph 55 % 0.00 in
18:16 81.1 °F 63.9 °F 29.93 in East 1.6 mph 13.0 mph 57 % 0.00 in
18:21 80.8 °F 65.1 °F 29.93 in Calm   13.0 mph 59 % 0.00 in
18:26 80.4 °F 65.3 °F 29.93 in East 3.8 mph 9.8 mph 60 % 0.00 in
18:31 80.4 °F 65.8 °F 29.93 in SE 5.4 mph 8.5 mph 61 % 0.00 in
18:36 79.9 °F 65.3 °F 29.93 in ESE 3.4 mph 8.7 mph 61 % 0.00 in
18:41 79.5 °F 65.4 °F 29.94 in Calm   10.7 mph 62 % 0.00 in
18:46 79.5 °F 65.4 °F 29.94 in Calm   10.7 mph 62 % 0.00 in
18:51 79.5 °F 65.4 °F 29.94 in Calm   3.1 mph 62 % 0.00 in
18:56 79.9 °F 65.6 °F 29.94 in Calm   2.9 mph 62 % 0.00 in
19:01 80.1 °F 65.9 °F 29.94 in ESE 2.2 mph 5.4 mph 62 % 0.00 in
19:06 79.7 °F 65.1 °F 29.95 in Calm   5.4 mph 61 % 0.00 in
19:11 79.5 °F 64.9 °F 29.95 in Calm   6.3 mph 61 % 0.00 in
19:16 79.5 °F 64.9 °F 29.95 in Calm   6.3 mph 61 % 0.00 in
19:21 79.5 °F 65.4 °F 29.95 in ESE 2.5 mph 3.4 mph 62 % 0.00 in
19:26 79.5 °F 65.4 °F 29.95 in Calm   7.4 mph 62 % 0.00 in
19:31 79.5 °F 65.4 °F 29.95 in Calm   7.4 mph 62 % 0.00 in
19:36 79.3 °F 65.2 °F 29.95 in Calm   3.1 mph 62 % 0.00 in
19:41 79.0 °F 64.5 °F 29.95 in SE 1.3 mph 3.1 mph 61 % 0.00 in
19:46 78.6 °F 64.5 °F 29.95 in Calm   5.1 mph 62 % 0.00 in
19:51 78.6 °F 64.5 °F 29.95 in WNW 4.0 mph 5.1 mph 62 % 0.00 in
19:56 78.4 °F 64.4 °F 29.95 in ENE 1.8 mph 4.0 mph 62 % 0.00 in
20:01 78.1 °F 64.5 °F 29.95 in Calm   4.0 mph 63 % 0.00 in
20:06 78.1 °F 64.5 °F 29.95 in Calm   2.2 mph 63 % 0.00 in
20:11 77.9 °F 64.3 °F 29.96 in Calm   1.6 mph 63 % 0.00 in
20:16 77.7 °F 64.5 °F 29.96 in Calm   5.8 mph 64 % 0.00 in
20:21 77.5 °F 64.4 °F 29.95 in Calm   5.8 mph 64 % 0.00 in
20:26 77.4 °F 64.7 °F 29.96 in Calm   1.6 mph 65 % 0.00 in
20:31 77.2 °F 64.5 °F 29.96 in Calm   2.5 mph 65 % 0.00 in
20:36 77.2 °F 64.5 °F 29.96 in Calm   4.0 mph 65 % 0.00 in
20:41 76.8 °F 64.1 °F 29.96 in Calm   4.0 mph 65 % 0.00 in
20:46 76.8 °F 64.1 °F 29.96 in Calm   3.8 mph 65 % 0.00 in
20:51 76.6 °F 64.0 °F 29.96 in Calm     65 % 0.00 in
20:56 76.6 °F 63.5 °F 29.96 in Calm   2.2 mph 64 % 0.00 in
21:01 76.3 °F 63.2 °F 29.97 in Calm   2.2 mph 64 % 0.00 in
21:06 76.3 °F 63.6 °F 29.97 in Calm   1.8 mph 65 % 0.00 in
21:11 76.1 °F 63.4 °F 29.96 in Calm   3.4 mph 65 % 0.00 in
21:16 75.9 °F 63.3 °F 29.96 in Calm   3.4 mph 65 % 0.00 in
21:21 75.7 °F 63.5 °F 29.96 in Calm   0.9 mph 66 % 0.00 in
21:26 75.7 °F 63.5 °F 29.97 in Calm     66 % 0.00 in
21:31 75.6 °F 63.8 °F 29.97 in Calm   2.5 mph 67 % 0.00 in
21:36 75.4 °F 64.1 °F 29.97 in Calm   2.5 mph 68 % 0.00 in
21:41 75.0 °F 64.3 °F 29.97 in Calm     69 % 0.00 in
21:46 75.0 °F 64.6 °F 29.97 in Calm   1.1 mph 70 % 0.00 in
21:51 75.0 °F 64.6 °F 29.98 in Calm   1.1 mph 70 % 0.00 in
21:56 75.0 °F 65.0 °F 29.98 in Calm   4.9 mph 71 % 0.00 in
22:01 75.0 °F 65.0 °F 29.97 in ESE 1.8 mph 8.1 mph 71 % 0.00 in
22:06 75.0 °F 65.4 °F 29.97 in SSE 2.0 mph 8.1 mph 72 % 0.00 in
22:11 75.0 °F 65.4 °F 29.98 in Calm   2.5 mph 72 % 0.00 in
22:16 75.0 °F 65.8 °F 29.97 in Calm   7.6 mph 73 % 0.00 in
22:21 74.8 °F 65.6 °F 29.97 in Calm   7.6 mph 73 % 0.00 in
22:26 74.7 °F 65.6 °F 29.97 in Calm   3.8 mph 73 % 0.00 in
22:31 74.5 °F 65.7 °F 29.97 in Calm   3.8 mph 74 % 0.00 in
22:36 74.3 °F 65.5 °F 29.97 in Calm   1.6 mph 74 % 0.00 in
22:41 74.1 °F 65.7 °F 29.97 in Calm     75 % 0.00 in
22:46 74.1 °F 65.7 °F 29.97 in Calm   0.7 mph 75 % 0.00 in
22:51 74.1 °F 65.7 °F 29.97 in Calm   0.7 mph 75 % 0.00 in
22:56 73.9 °F 65.5 °F 29.97 in Calm   3.8 mph 75 % 0.00 in
23:01 73.9 °F 65.5 °F 29.97 in Calm   3.8 mph 75 % 0.00 in
23:06 73.8 °F 65.8 °F 29.96 in Calm   0.7 mph 76 % 0.00 in
23:11 73.8 °F 65.8 °F 29.97 in Calm     76 % 0.00 in
23:16 73.6 °F 65.6 °F 29.97 in Calm     76 % 0.00 in
23:21 73.6 °F 65.6 °F 29.97 in Calm     76 % 0.00 in
23:26 73.4 °F 65.8 °F 29.97 in East 2.9 mph 2.9 mph 77 % 0.00 in
23:31 73.2 °F 65.6 °F 29.97 in Calm   2.9 mph 77 % 0.00 in
23:36 73.2 °F 65.6 °F 29.97 in Calm     77 % 0.00 in
23:41 73.2 °F 65.6 °F 29.98 in Calm     77 % 0.00 in
23:46 73.2 °F 65.6 °F 29.97 in Calm     78 % 0.00 in
23:51 73.0 °F 65.8 °F 29.97 in Calm     78 % 0.00 in
23:56 73.0 °F 65.8 °F 29.98 in Calm     78 % 0.00 in
Burke, Virginia, USA
Compliments of Weather Underground - 3 mb